createdAt,value
2023-02-08T00:02:12.759Z,6.50
2023-02-08T00:05:14.032Z,9.93
2023-02-08T00:08:15.430Z,12.73
2023-02-08T00:11:16.836Z,5.05
2023-02-08T00:14:18.185Z,7.75
2023-02-08T00:17:19.445Z,2.85
2023-02-08T00:20:20.843Z,8.15
2023-02-08T00:23:22.169Z,5.85
2023-02-08T00:26:23.842Z,6.75
2023-02-08T00:29:25.118Z,8.85
2023-02-08T00:32:26.447Z,4.60
2023-02-08T00:35:28.420Z,5.93
2023-02-08T00:38:29.684Z,5.63
2023-02-08T00:41:31.093Z,6.00
2023-02-08T00:44:32.417Z,6.30
2023-02-08T00:47:34.316Z,7.88
2023-02-08T00:50:35.597Z,5.10
2023-02-08T00:53:37.999Z,4.28
2023-02-08T00:56:39.244Z,6.93
2023-02-08T00:59:40.532Z,3.45
2023-02-08T01:02:41.810Z,3.88
2023-02-08T01:05:43.138Z,2.75
2023-02-08T01:08:44.384Z,8.32
2023-02-08T01:11:45.665Z,4.88
2023-02-08T01:14:47.040Z,4.68
2023-02-08T01:17:48.268Z,4.55
2023-02-08T01:20:49.576Z,4.03
2023-02-08T01:23:50.943Z,6.00
2023-02-08T01:26:52.312Z,3.63
2023-02-08T01:29:53.625Z,4.70
2023-02-08T01:32:54.927Z,4.22
2023-02-08T01:35:56.223Z,3.63
2023-02-08T01:38:57.819Z,3.78
2023-02-08T01:41:59.109Z,5.00
2023-02-08T01:45:12.587Z,4.57
2023-02-08T01:48:17.483Z,3.17
2023-02-08T01:51:25.014Z,4.38
2023-02-08T01:54:27.738Z,3.65
2023-02-08T01:57:29.682Z,5.40
2023-02-08T02:00:31.291Z,4.10
2023-02-08T02:03:33.833Z,3.38
2023-02-08T02:06:36.958Z,2.35
2023-02-08T02:09:42.469Z,3.38
2023-02-08T02:15:45.464Z,3.25
2023-02-08T02:18:46.720Z,3.50
2023-02-08T02:22:01.581Z,4.65
2023-02-08T02:25:02.821Z,2.75
2023-02-08T02:28:09.960Z,2.80
2023-02-08T02:31:39.401Z,3.95
2023-02-08T02:34:52.821Z,2.50
2023-02-08T02:38:11.220Z,2.33
2023-02-08T02:41:12.437Z,5.80
2023-02-08T02:44:37.050Z,3.20
2023-02-08T02:47:57.296Z,4.50
2023-02-08T02:51:06.562Z,4.47
2023-02-08T02:54:16.797Z,3.17
2023-02-08T02:57:22.090Z,4.88
2023-02-08T03:00:26.033Z,1.83
2023-02-08T03:03:28.594Z,2.85
2023-02-08T03:06:38.744Z,2.30
2023-02-08T03:09:54.141Z,3.95
2023-02-08T03:13:01.098Z,3.25
2023-02-08T03:16:11.455Z,4.15
2023-02-08T03:19:26.684Z,3.58
2023-02-08T03:22:48.196Z,1.63
2023-02-08T03:26:08.215Z,6.70
2023-02-08T03:29:12.070Z,9.93
2023-02-08T03:32:17.009Z,4.55
2023-02-08T03:35:18.297Z,8.10
2023-02-08T03:38:23.344Z,2.72
2023-02-08T03:41:27.835Z,4.03
2023-02-08T03:44:32.149Z,2.97
2023-02-08T03:47:38.204Z,3.63
2023-02-08T03:50:40.667Z,4.70
2023-02-08T03:53:44.343Z,8.30
2023-02-08T03:56:53.772Z,2.47
2023-02-08T04:00:01.136Z,2.28
2023-02-08T04:03:02.743Z,3.15
2023-02-08T04:06:04.078Z,6.93
2023-02-08T04:09:05.312Z,3.33
2023-02-08T04:12:06.766Z,4.63
2023-02-08T04:15:08.323Z,3.30
2023-02-08T04:18:09.572Z,3.08
2023-02-08T04:21:10.870Z,1.95
2023-02-08T04:24:12.231Z,1.85
2023-02-08T04:27:13.584Z,7.18
2023-02-08T04:30:14.827Z,2.20
2023-02-08T04:33:16.743Z,3.05
2023-02-08T04:36:18.132Z,3.40
2023-02-08T04:39:19.391Z,2.50
2023-02-08T04:42:21.741Z,4.00
2023-02-08T04:45:23.692Z,8.05
2023-02-08T04:48:24.964Z,5.43
2023-02-08T04:51:26.253Z,2.25
2023-02-08T04:54:27.813Z,4.90
2023-02-08T04:57:29.078Z,4.80
2023-02-08T05:00:30.356Z,3.20
2023-02-08T05:03:31.634Z,3.65
2023-02-08T05:06:33.296Z,1.65
2023-02-08T05:09:34.597Z,2.45
2023-02-08T05:12:35.829Z,10.68
2023-02-08T05:15:37.112Z,2.13
2023-02-08T05:18:38.399Z,2.42
2023-02-08T05:21:39.722Z,3.08
2023-02-08T05:24:41.014Z,3.45
2023-02-08T05:27:42.349Z,2.20
2023-02-08T05:30:43.926Z,4.00
2023-02-08T05:33:45.508Z,4.22
2023-02-08T05:36:46.793Z,2.53
2023-02-08T05:39:48.065Z,3.83
2023-02-08T05:42:49.385Z,3.90
2023-02-08T05:45:51.251Z,2.63
2023-02-08T05:48:52.532Z,2.70
2023-02-08T05:51:53.812Z,4.07
2023-02-08T05:54:55.143Z,2.55
2023-02-08T05:57:56.515Z,4.40
2023-02-08T06:00:57.828Z,9.57
2023-02-08T06:04:00.111Z,2.85
2023-02-08T06:07:01.450Z,8.63
2023-02-08T06:10:02.870Z,5.53
2023-02-08T06:13:04.319Z,3.97
2023-02-08T06:16:06.453Z,2.05
2023-02-08T06:19:07.793Z,3.47
2023-02-08T06:22:09.149Z,3.72
2023-02-08T06:25:10.472Z,2.95
2023-02-08T06:28:11.826Z,2.50
2023-02-08T06:31:13.193Z,5.10
2023-02-08T06:34:14.505Z,3.25
2023-02-08T06:37:15.871Z,5.85
2023-02-08T06:40:17.149Z,2.75
2023-02-08T06:43:18.601Z,4.30
2023-02-08T06:46:19.944Z,4.22
2023-02-08T06:49:21.200Z,2.28
2023-02-08T06:52:22.629Z,5.32
2023-02-08T06:55:23.885Z,3.65
2023-02-08T06:58:25.218Z,4.57
2023-02-08T07:01:26.591Z,4.55
2023-02-08T07:04:27.908Z,2.90
2023-02-08T07:07:29.173Z,2.85
2023-02-08T07:10:30.713Z,3.25
2023-02-08T07:13:31.999Z,5.60
2023-02-08T07:16:33.339Z,3.88
2023-02-08T07:19:34.950Z,2.80
2023-02-08T07:22:36.253Z,3.38
2023-02-08T07:25:37.523Z,4.78
2023-02-08T07:28:39.064Z,2.25
2023-02-08T07:31:40.355Z,5.32
2023-02-08T07:34:41.705Z,3.92
2023-02-08T07:37:42.979Z,5.65
2023-02-08T07:40:44.406Z,5.13
2023-02-08T07:43:45.818Z,3.42
2023-02-08T07:46:47.093Z,3.45
2023-02-08T07:49:48.350Z,2.78
2023-02-08T07:52:49.638Z,2.33
2023-02-08T07:55:50.911Z,2.45
2023-02-08T07:58:52.155Z,6.55
2023-02-08T08:01:53.452Z,7.60
2023-02-08T08:04:54.780Z,5.93
2023-02-08T08:07:56.077Z,5.22
2023-02-08T08:10:57.333Z,6.65
2023-02-08T08:13:58.673Z,7.85
2023-02-08T08:16:59.998Z,5.00
2023-02-08T08:20:01.290Z,8.20
2023-02-08T08:23:02.610Z,7.25
2023-02-08T08:26:08.014Z,4.35
2023-02-08T08:32:11.910Z,3.72
2023-02-08T08:35:13.416Z,4.15
2023-02-08T08:38:14.749Z,4.55
2023-02-08T08:41:17.844Z,6.80
2023-02-08T08:44:19.761Z,3.78
2023-02-08T08:47:21.300Z,5.47
2023-02-08T08:50:22.574Z,3.72
2023-02-08T08:53:23.840Z,5.45
2023-02-08T08:56:25.102Z,7.25
2023-02-08T08:59:26.377Z,3.30
2023-02-08T09:02:27.651Z,5.93
2023-02-08T09:05:28.952Z,5.55
2023-02-08T09:08:30.213Z,5.88
2023-02-08T09:11:33.172Z,5.13
2023-02-08T09:14:34.480Z,6.20
2023-02-08T09:17:35.747Z,7.32
2023-02-08T09:20:40.580Z,9.70
2023-02-08T09:23:42.422Z,7.60
2023-02-08T09:26:45.789Z,6.85
2023-02-08T09:29:47.094Z,9.85
2023-02-08T09:32:48.358Z,4.15
2023-02-08T09:35:49.725Z,5.00
2023-02-08T09:38:54.245Z,4.97
2023-02-08T09:42:03.770Z,6.55
2023-02-08T09:45:14.579Z,9.95
2023-02-08T09:48:22.155Z,5.45
2023-02-08T09:51:35.708Z,5.22
2023-02-08T09:54:39.039Z,5.47
2023-02-08T09:57:41.346Z,4.97
2023-02-08T10:00:44.451Z,4.65
2023-02-08T10:03:46.130Z,5.65
2023-02-08T10:06:49.929Z,4.95
2023-02-08T10:09:52.200Z,9.00
2023-02-08T10:12:59.970Z,6.13
2023-02-08T10:16:09.435Z,5.32
2023-02-08T10:19:19.431Z,3.90
2023-02-08T10:22:44.797Z,3.97
2023-02-08T10:25:54.159Z,5.00
2023-02-08T10:29:04.631Z,4.32
2023-02-08T10:32:14.939Z,5.35
2023-02-08T10:35:27.114Z,4.45
2023-02-08T10:38:45.208Z,4.53
2023-02-08T10:41:47.342Z,4.53
2023-02-08T10:44:56.370Z,6.32
2023-02-08T10:48:02.812Z,5.72
2023-02-08T10:51:04.277Z,7.40
2023-02-08T10:54:05.694Z,5.05
2023-02-08T10:57:13.070Z,4.35
2023-02-08T11:00:15.031Z,6.50
2023-02-08T11:03:23.642Z,4.95
2023-02-08T11:06:26.118Z,5.78
2023-02-08T11:09:29.241Z,6.78
2023-02-08T11:12:30.725Z,5.82
2023-02-08T11:15:40.131Z,8.55
2023-02-08T11:18:47.212Z,7.82
2023-02-08T11:21:50.487Z,9.70
2023-02-08T11:25:02.977Z,9.15
2023-02-08T11:28:04.940Z,9.45
2023-02-08T11:31:15.593Z,8.60
2023-02-08T11:34:23.874Z,9.98
2023-02-08T11:37:28.507Z,9.48
2023-02-08T11:40:35.942Z,10.48
2023-02-08T11:43:37.298Z,9.60
2023-02-08T11:46:41.916Z,10.48
2023-02-08T11:49:44.475Z,8.95
2023-02-08T11:52:51.622Z,10.45
2023-02-08T11:56:05.326Z,9.93
2023-02-08T11:59:12.668Z,8.90
2023-02-08T12:02:40.206Z,9.30
2023-02-08T12:05:45.714Z,9.70
2023-02-08T12:09:07.738Z,8.50
2023-02-08T12:12:08.976Z,13.55
2023-02-08T12:15:18.642Z,9.38
2023-02-08T12:18:33.472Z,9.02
2023-02-08T12:21:45.250Z,8.82
2023-02-08T12:24:49.809Z,8.88
2023-02-08T12:28:03.438Z,9.18
2023-02-08T12:31:13.821Z,8.10
2023-02-08T12:37:58.138Z,8.45
2023-02-08T12:41:18.336Z,8.25
2023-02-08T12:44:19.649Z,9.00
2023-02-08T12:47:20.918Z,8.02
2023-02-08T12:50:28.024Z,9.27
2023-02-08T12:53:31.710Z,8.45
2023-02-08T12:56:36.095Z,7.93
2023-02-08T12:59:44.493Z,8.45
2023-02-08T13:02:54.562Z,8.15
2023-02-08T13:06:02.139Z,7.93
2023-02-08T13:09:06.205Z,7.05
2023-02-08T13:12:20.761Z,9.07
2023-02-08T13:15:30.959Z,6.40
2023-02-08T13:18:34.188Z,6.45
2023-02-08T13:21:41.933Z,7.05
2023-02-08T13:24:44.723Z,6.13
2023-02-08T13:27:46.069Z,5.28
2023-02-08T13:30:55.724Z,6.32
2023-02-08T13:34:01.979Z,5.72
2023-02-08T13:37:13.487Z,7.60
2023-02-08T13:40:28.101Z,10.95
2023-02-08T13:43:39.689Z,5.97
2023-02-08T13:46:45.544Z,8.80
2023-02-08T13:49:49.883Z,6.00
2023-02-08T13:52:51.604Z,6.22
2023-02-08T13:55:54.934Z,6.10
2023-02-08T13:58:58.416Z,6.13
2023-02-08T14:02:11.878Z,5.45
2023-02-08T14:05:31.549Z,9.25
2023-02-08T14:08:39.010Z,4.97
2023-02-08T14:11:45.447Z,6.15
2023-02-08T14:15:04.809Z,4.97
2023-02-08T14:18:21.217Z,5.70
2023-02-08T14:21:28.034Z,14.45
2023-02-08T14:24:34.781Z,6.15
2023-02-08T14:27:55.149Z,8.40
2023-02-08T14:30:57.989Z,6.35
2023-02-08T14:33:59.327Z,5.82
2023-02-08T14:37:05.521Z,7.07
2023-02-08T14:40:24.496Z,6.03
2023-02-08T14:43:36.333Z,6.53
2023-02-08T14:46:37.869Z,7.88
2023-02-08T14:49:43.400Z,5.85
2023-02-08T14:52:52.892Z,5.53
2023-02-08T14:55:58.071Z,5.90
2023-02-08T14:59:04.959Z,6.97
2023-02-08T15:02:19.310Z,5.93
2023-02-08T15:05:22.233Z,5.28
2023-02-08T15:08:24.484Z,6.32
2023-02-08T15:11:27.971Z,7.97
2023-02-08T15:14:30.434Z,6.32
2023-02-08T15:17:43.803Z,6.53
2023-02-08T15:20:45.700Z,6.90
2023-02-08T15:24:05.994Z,6.20
2023-02-08T15:27:19.293Z,5.95
2023-02-08T15:30:28.243Z,8.65
2023-02-08T15:33:29.592Z,6.60
2023-02-08T15:36:32.092Z,5.95
2023-02-08T15:39:34.884Z,7.07
2023-02-08T15:42:42.725Z,6.45
2023-02-08T15:45:44.060Z,6.82
2023-02-08T15:48:46.256Z,6.00
2023-02-08T15:51:47.856Z,9.95
2023-02-08T15:54:49.625Z,14.68
2023-02-08T15:57:53.666Z,10.98
2023-02-08T16:00:56.002Z,7.03
2023-02-08T16:03:59.313Z,6.35
2023-02-08T16:07:00.716Z,7.70
2023-02-08T16:10:02.421Z,7.15
2023-02-08T16:13:05.214Z,5.28
2023-02-08T16:16:20.643Z,7.10
2023-02-08T16:19:29.492Z,5.03
2023-02-08T16:22:32.451Z,5.10
2023-02-08T16:25:49.110Z,4.80
2023-02-08T16:28:58.154Z,4.85
2023-02-08T16:32:01.112Z,7.25
2023-02-08T16:35:12.460Z,8.15
2023-02-08T16:38:18.911Z,9.07
2023-02-08T16:41:23.604Z,5.35
2023-02-08T16:44:26.705Z,6.35
2023-02-08T16:47:34.341Z,6.45
2023-02-08T16:50:37.904Z,6.22
2023-02-08T16:53:42.314Z,6.55
2023-02-08T16:56:45.710Z,12.10
2023-02-08T16:59:46.971Z,6.50
2023-02-08T17:02:48.802Z,10.25
2023-02-08T17:05:50.047Z,5.97
2023-02-08T17:08:51.334Z,14.23
2023-02-08T17:11:52.598Z,6.32
2023-02-08T17:14:53.876Z,6.55
2023-02-08T17:17:55.758Z,5.78
2023-02-08T17:20:59.792Z,5.45
2023-02-08T17:24:01.757Z,6.13
2023-02-08T17:27:03.255Z,5.47
2023-02-08T17:30:04.728Z,7.05
2023-02-08T17:33:11.387Z,7.72
2023-02-08T17:36:14.402Z,6.47
2023-02-08T17:39:16.703Z,6.63
2023-02-08T17:42:17.992Z,7.43
2023-02-08T17:45:19.704Z,5.82
2023-02-08T17:48:21.055Z,6.85
2023-02-08T17:51:23.449Z,6.80
2023-02-08T17:54:24.818Z,7.20
2023-02-08T17:57:26.136Z,8.00
2023-02-08T18:00:27.415Z,7.65
2023-02-08T18:03:28.811Z,7.72
2023-02-08T18:06:30.216Z,8.13
2023-02-08T18:09:31.925Z,10.40
2023-02-08T18:12:35.015Z,8.48
2023-02-08T18:15:36.292Z,5.80
2023-02-08T18:18:37.653Z,6.75
2023-02-08T18:21:38.955Z,8.05
2023-02-08T18:24:40.210Z,15.63
2023-02-08T18:27:41.640Z,14.63
2023-02-08T18:30:43.046Z,9.68
2023-02-08T18:33:44.480Z,10.73
2023-02-08T18:36:45.803Z,20.00
2023-02-08T18:39:47.747Z,12.30
2023-02-08T18:42:49.046Z,10.10
2023-02-08T18:46:03.429Z,10.43
2023-02-08T18:49:05.847Z,9.05
2023-02-08T18:52:07.968Z,9.40
2023-02-08T18:55:09.340Z,6.80
2023-02-08T18:58:10.694Z,13.68
2023-02-08T19:01:13.630Z,9.40
2023-02-08T19:04:14.993Z,8.52
2023-02-08T19:07:16.379Z,12.55
2023-02-08T19:10:18.124Z,17.33
2023-02-08T19:13:19.491Z,19.52
2023-02-08T19:16:22.423Z,13.00
2023-02-08T19:19:23.792Z,17.80
2023-02-08T19:22:25.105Z,9.13
2023-02-08T19:25:26.451Z,11.00
2023-02-08T19:28:28.549Z,16.73
2023-02-08T19:31:30.908Z,19.80
2023-02-08T19:34:32.290Z,9.43
2023-02-08T19:37:33.605Z,13.05
2023-02-08T19:40:34.951Z,10.18
2023-02-08T19:43:36.339Z,9.20
2023-02-08T19:46:43.155Z,8.57
2023-02-08T19:49:44.478Z,11.02
2023-02-08T19:52:45.817Z,8.73
2023-02-08T19:55:56.485Z,12.55
2023-02-08T19:58:57.918Z,8.90
2023-02-08T20:01:59.244Z,6.70
2023-02-08T20:05:01.362Z,5.70
2023-02-08T20:08:02.718Z,8.93
2023-02-08T20:11:04.109Z,13.00
2023-02-08T20:14:05.980Z,11.75
2023-02-08T20:17:07.282Z,8.25
2023-02-08T20:20:08.801Z,12.98
2023-02-08T20:23:22.025Z,6.57
2023-02-08T20:26:27.457Z,11.60
2023-02-08T20:29:28.803Z,11.35
2023-02-08T20:32:30.171Z,8.57
2023-02-08T20:35:31.453Z,6.68
2023-02-08T20:38:33.176Z,7.90
2023-02-08T20:41:35.531Z,7.25
2023-02-08T20:44:36.818Z,10.60
2023-02-08T20:47:46.438Z,5.10
2023-02-08T20:50:48.063Z,7.25
2023-02-08T20:53:49.998Z,9.43
2023-02-08T20:56:52.277Z,8.30
2023-02-08T20:59:53.556Z,9.65
2023-02-08T21:02:54.852Z,9.85
2023-02-08T21:05:56.139Z,9.10
2023-02-08T21:08:58.123Z,9.32
2023-02-08T21:11:59.504Z,7.18
2023-02-08T21:15:00.810Z,10.40
2023-02-08T21:18:02.127Z,9.73
2023-02-08T21:21:04.554Z,8.52
2023-02-08T21:24:06.166Z,12.40
2023-02-08T21:27:07.656Z,7.47
2023-02-08T21:30:09.261Z,5.88
2023-02-08T21:33:10.531Z,6.13
2023-02-08T21:36:14.179Z,7.72
2023-02-08T21:39:15.504Z,4.45
2023-02-08T21:42:16.847Z,4.40
2023-02-08T21:45:18.121Z,6.82
2023-02-08T21:48:19.406Z,8.65
2023-02-08T21:51:47.603Z,5.95
2023-02-08T21:54:53.371Z,8.95
2023-02-08T21:57:54.662Z,5.55
2023-02-08T22:00:55.946Z,5.88
2023-02-08T22:03:57.233Z,5.10
2023-02-08T22:06:58.534Z,5.30
2023-02-08T22:09:59.910Z,4.53
2023-02-08T22:13:01.252Z,3.67
2023-02-08T22:16:06.770Z,5.70
2023-02-08T22:19:08.130Z,3.20
2023-02-08T22:22:10.390Z,4.70
2023-02-08T22:25:11.736Z,5.63
2023-02-08T22:28:13.084Z,6.53
2023-02-08T22:31:15.200Z,3.95
2023-02-08T22:34:16.633Z,5.78
2023-02-08T22:37:17.969Z,5.90
2023-02-08T22:40:19.541Z,4.72
2023-02-08T22:43:20.851Z,7.07
2023-02-08T22:46:22.224Z,5.10
2023-02-08T22:49:23.506Z,5.60
2023-02-08T22:52:25.728Z,5.75
2023-02-08T22:55:27.063Z,5.00
2023-02-08T22:58:28.564Z,4.68
2023-02-08T23:01:29.903Z,3.40
2023-02-08T23:04:31.299Z,3.78
2023-02-08T23:07:32.611Z,3.15
2023-02-08T23:10:33.986Z,3.10
2023-02-08T23:13:35.266Z,4.07
2023-02-08T23:16:36.747Z,3.10
2023-02-08T23:19:38.050Z,3.05
2023-02-08T23:22:39.348Z,4.53
2023-02-08T23:25:41.320Z,6.15
2023-02-08T23:28:42.774Z,7.38
2023-02-08T23:31:44.907Z,4.05
2023-02-08T23:34:46.295Z,6.15
2023-02-08T23:37:47.575Z,10.65
2023-02-08T23:40:48.909Z,9.43
2023-02-08T23:43:51.346Z,5.80
2023-02-08T23:46:52.779Z,5.40
2023-02-08T23:49:54.212Z,8.50
2023-02-08T23:52:56.561Z,9.52
2023-02-08T23:56:09.873Z,7.60
2023-02-08T23:59:11.260Z,8.02
